Fountain Lake, Arkansas
Current Conditions -  °F | °C
As of 7:53 AM on Friday 31 Oct 2014 (Local Time) from KHOT Reporting Station
Clear Clear  
Wind Chill: 52°   Ceiling: Unl
Heat Index: 52°   Visibility: 10mi
Dew Point: 42°   Wind: 7mph
Humidity: 69%   Direction: 340°NNW
Pressure: 30.17"   Gusts: NA
Location:  34.5331°N, 93.0035°W
Report Text: KHOT 311253Z AUTO 34006KT 10SM CLR 11/06 A3017 RMK AO2 SLP213 T01110056
Loading
Personal Weather Stations






























Interactive Weather Map
Tropical Storm Tracking
New forecast layout! Learn more

10-Day Weather Forecast

Advertisements
Track Severe Weather on mobile